Time;durP1;ratioP1;P1;durP2;ratioP2;P2;SDS_P1;SDS_P2;PMS_P1;PMS_P2;Temp;Humidity;BMP_temperature;BMP_pressure;BME280_temperature;BME280_humidity;BME280_pressure;Samples;Min_cycle;Max_cycle;Signal;HPM_P1;HPM_P2
2023/07/31 00:01:31;;;;;;;5.50;2.70;;;;;;;15.88;100.00;100291.56;4951439;29;20040;-84
2023/07/31 00:03:58;;;;;;;4.07;2.28;;;;;;;15.91;100.00;100294.13;4934231;29;20245;-82
2023/07/31 00:06:25;;;;;;;2.90;2.10;;;;;;;15.90;100.00;100301.25;4946288;28;20067;-82
2023/07/31 00:08:52;;;;;;;3.72;2.47;;;;;;;15.91;100.00;100294.13;4938885;28;20071;-82
2023/07/31 00:11:19;;;;;;;3.60;2.30;;;;;;;15.99;100.00;100302.59;4934187;28;20099;-81
2023/07/31 00:13:45;;;;;;;4.13;2.63;;;;;;;15.85;100.00;100305.06;4927312;29;20122;-82
2023/07/31 00:16:12;;;;;;;4.05;2.22;;;;;;;15.85;100.00;100305.91;4947429;29;20046;-82
2023/07/31 00:18:39;;;;;;;4.30;2.60;;;;;;;15.90;100.00;100306.56;4926858;28;20693;-82
2023/07/31 00:21:06;;;;;;;5.35;2.45;;;;;;;15.71;100.00;100311.88;4920658;29;20047;-82
2023/07/31 00:23:33;;;;;;;3.95;2.30;;;;;;;15.70;100.00;100301.31;4944937;28;20731;-85
2023/07/31 00:26:00;;;;;;;4.47;2.78;;;;;;;15.62;100.00;100304.34;4931220;28;20047;-85
2023/07/31 00:28:28;;;;;;;4.50;2.60;;;;;;;15.61;100.00;100297.28;4979594;28;20090;-84
2023/07/31 00:30:55;;;;;;;3.40;2.55;;;;;;;15.57;100.00;100308.13;5028301;28;20051;-83
2023/07/31 00:33:22;;;;;;;5.03;3.03;;;;;;;15.53;100.00;100299.41;4927333;28;20043;-83
2023/07/31 00:35:49;;;;;;;3.45;2.47;;;;;;;15.46;100.00;100297.97;4967384;28;20063;-83
2023/07/31 00:38:17;;;;;;;2.72;2.33;;;;;;;15.42;100.00;100294.59;4922688;28;20074;-79
2023/07/31 00:40:44;;;;;;;3.97;2.63;;;;;;;15.46;100.00;100300.63;4939318;28;20198;-82
2023/07/31 00:43:11;;;;;;;3.38;2.40;;;;;;;15.40;100.00;100292.94;4953557;28;20039;-82
2023/07/31 00:45:41;;;;;;;4.78;2.42;;;;;;;15.34;100.00;100288.75;4950541;29;20154;-84
2023/07/31 00:48:08;;;;;;;3.30;2.50;;;;;;;15.37;100.00;100291.25;4938610;28;20547;-82
2023/07/31 00:50:36;;;;;;;3.95;2.65;;;;;;;15.45;100.00;100290.91;4935795;28;20054;-83
2023/07/31 00:53:03;;;;;;;3.58;2.60;;;;;;;15.43;100.00;100285.66;4922045;28;20486;-82
2023/07/31 00:55:30;;;;;;;2.78;2.40;;;;;;;15.35;100.00;100274.50;4937182;28;20047;-84
2023/07/31 00:57:59;;;;;;;3.25;1.90;;;;;;;15.37;100.00;100269.09;4924252;28;20119;-83
2023/07/31 01:00:26;;;;;;;3.83;2.60;;;;;;;15.37;100.00;100266.44;4931729;29;20047;-83
2023/07/31 01:02:53;;;;;;;2.88;2.05;;;;;;;15.34;100.00;100271.91;4934199;28;20047;-82
2023/07/31 01:05:31;;;;;;;3.67;2.60;;;;;;;15.26;100.00;100272.28;4934539;28;20051;-84
2023/07/31 01:08:15;;;;;;;2.90;2.22;;;;;;;15.34;100.00;100261.28;4948994;29;20052;-81
2023/07/31 01:10:52;;;;;;;3.38;2.38;;;;;;;15.22;100.00;100260.06;4948908;28;20043;-82
2023/07/31 01:13:19;;;;;;;4.32;2.38;;;;;;;15.24;100.00;100260.84;4917066;28;20135;-83
2023/07/31 01:15:45;;;;;;;3.85;2.20;;;;;;;15.23;100.00;100259.13;4924638;28;20061;-84
2023/07/31 01:18:12;;;;;;;2.97;2.63;;;;;;;15.29;100.00;100260.63;4915978;28;20066;-84
2023/07/31 01:20:40;;;;;;;4.55;2.53;;;;;;;15.31;100.00;100261.44;4937946;28;20053;-82
2023/07/31 01:23:31;;;;;;;3.50;2.20;;;;;;;15.27;100.00;100257.16;4943193;29;20032;-81
2023/07/31 01:26:09;;;;;;;4.15;2.80;;;;;;;15.32;100.00;100253.38;4932182;28;20039;-82
2023/07/31 01:28:39;;;;;;;3.70;2.20;;;;;;;15.27;100.00;100250.03;4925664;29;20087;-85
2023/07/31 01:31:07;;;;;;;3.13;2.30;;;;;;;15.27;100.00;100249.19;4966208;28;20093;-83
2023/07/31 01:33:36;;;;;;;3.22;2.25;;;;;;;15.27;100.00;100255.38;4929836;29;20055;-80
2023/07/31 01:36:03;;;;;;;4.05;2.53;;;;;;;15.32;100.00;100245.38;4935074;28;20063;-81
2023/07/31 01:38:30;;;;;;;5.30;2.50;;;;;;;15.29;100.00;100247.31;4944927;29;20547;-83
2023/07/31 01:40:57;;;;;;;4.82;2.50;;;;;;;15.33;100.00;100241.78;4948481;28;20051;-79
2023/07/31 01:43:24;;;;;;;5.45;2.50;;;;;;;15.23;100.00;100242.28;5018611;28;20062;-82
2023/07/31 01:45:51;;;;;;;6.00;2.70;;;;;;;15.34;100.00;100242.66;4928940;28;20059;-81
2023/07/31 01:48:17;;;;;;;3.72;2.13;;;;;;;15.35;100.00;100241.72;4933976;28;20075;-83
2023/07/31 01:50:44;;;;;;;7.00;2.47;;;;;;;15.32;100.00;100255.16;4929614;29;20040;-83
2023/07/31 01:53:13;;;;;;;4.82;2.20;;;;;;;15.41;100.00;100244.09;4911343;28;20051;-81
2023/07/31 01:55:39;;;;;;;4.30;2.30;;;;;;;15.42;100.00;100246.69;4931745;28;20134;-85
2023/07/31 01:58:09;;;;;;;5.40;2.15;;;;;;;15.38;100.00;100246.88;4931474;28;20045;-83
2023/07/31 02:00:35;;;;;;;3.47;2.17;;;;;;;15.34;100.00;100250.63;4948590;29;20089;-80
2023/07/31 02:03:02;;;;;;;4.72;2.33;;;;;;;15.43;100.00;100244.88;4929156;28;20055;-82
2023/07/31 02:05:29;;;;;;;3.20;2.05;;;;;;;15.37;100.00;100247.81;4919068;29;20673;-81
2023/07/31 02:07:56;;;;;;;4.22;2.10;;;;;;;15.34;100.00;100237.31;4929310;28;20043;-84
2023/07/31 02:10:23;;;;;;;3.70;2.00;;;;;;;15.29;100.00;100241.97;4939054;29;20451;-81
2023/07/31 02:12:50;;;;;;;7.00;2.40;;;;;;;15.41;100.00;100225.47;4920947;29;20044;-80
2023/07/31 02:15:19;;;;;;;3.67;2.80;;;;;;;15.35;100.00;100228.41;4935093;29;20062;-83
2023/07/31 02:17:46;;;;;;;2.83;2.50;;;;;;;15.34;100.00;100230.19;4935918;28;20052;-82
2023/07/31 02:20:13;;;;;;;2.72;1.85;;;;;;;15.34;100.00;100227.53;4932996;29;20044;-81
2023/07/31 02:22:39;;;;;;;3.25;2.03;;;;;;;15.30;100.00;100228.63;4917485;29;20073;-79
2023/07/31 02:25:07;;;;;;;5.38;2.50;;;;;;;15.32;100.00;100231.22;4919991;28;20627;-83
2023/07/31 02:27:36;;;;;;;4.15;1.95;;;;;;;15.31;100.00;100227.69;4932842;29;20039;-81
2023/07/31 02:30:02;;;;;;;4.28;2.80;;;;;;;15.34;100.00;100224.00;4932869;28;20044;-84
2023/07/31 02:32:29;;;;;;;3.13;2.08;;;;;;;15.28;100.00;100230.47;4925243;28;20042;-82
2023/07/31 02:34:56;;;;;;;4.25;2.72;;;;;;;15.36;100.00;100230.97;4944781;29;20049;-81
2023/07/31 02:37:23;;;;;;;4.40;2.30;;;;;;;15.40;100.00;100216.59;4916903;28;20069;-84
2023/07/31 02:39:50;;;;;;;4.38;2.35;;;;;;;15.28;100.00;100221.63;4934691;28;20043;-85
2023/07/31 02:42:16;;;;;;;4.13;2.13;;;;;;;15.23;100.00;100223.66;4934090;28;20055;-84
2023/07/31 02:44:43;;;;;;;6.15;2.67;;;;;;;15.16;100.00;100221.28;4940785;29;20075;-82
2023/07/31 02:47:10;;;;;;;4.10;2.30;;;;;;;15.16;100.00;100212.44;4920131;28;20043;-84
2023/07/31 02:49:36;;;;;;;3.35;2.55;;;;;;;15.16;100.00;100220.41;4937518;28;20641;-84
2023/07/31 02:52:04;;;;;;;3.63;2.30;;;;;;;15.12;100.00;100221.47;4918974;28;20032;-82
2023/07/31 02:54:30;;;;;;;3.80;2.42;;;;;;;15.10;100.00;100216.22;4931764;28;20046;-83
2023/07/31 02:56:57;;;;;;;5.70;2.58;;;;;;;15.08;100.00;100212.78;4929779;28;20051;-83
2023/07/31 02:59:25;;;;;;;6.72;2.60;;;;;;;15.04;100.00;100205.88;4914138;28;20063;-83
2023/07/31 03:01:51;;;;;;;3.88;2.53;;;;;;;15.04;100.00;100208.53;4941624;29;20036;-82
2023/07/31 03:04:18;;;;;;;6.35;2.88;;;;;;;15.00;100.00;100219.38;4938364;28;20043;-82
2023/07/31 03:06:45;;;;;;;3.88;2.65;;;;;;;15.00;100.00;100214.06;4922440;28;20046;-84
2023/07/31 03:09:12;;;;;;;5.47;2.80;;;;;;;15.06;100.00;100222.63;4933361;28;20043;-83
2023/07/31 03:11:38;;;;;;;5.50;2.83;;;;;;;14.99;100.00;100215.00;4938984;28;20067;-82
2023/07/31 03:14:05;;;;;;;3.80;2.40;;;;;;;15.04;100.00;100207.66;4942110;28;20050;-84
2023/07/31 03:16:32;;;;;;;6.68;2.97;;;;;;;14.90;100.00;100208.31;4941233;29;20047;-83
2023/07/31 03:18:58;;;;;;;6.38;3.00;;;;;;;14.96;100.00;100215.13;4924144;28;20062;-83
2023/07/31 03:21:25;;;;;;;4.50;2.90;;;;;;;14.88;100.00;100204.84;4973091;28;20047;-84
2023/07/31 03:23:53;;;;;;;3.70;2.50;;;;;;;14.81;100.00;100206.94;4939021;28;20074;-84
2023/07/31 03:26:21;;;;;;;3.97;2.92;;;;;;;14.78;100.00;100208.84;4935295;29;20042;-83
2023/07/31 03:28:49;;;;;;;6.18;3.47;;;;;;;14.77;100.00;100196.50;4930105;28;20082;-84
2023/07/31 03:31:16;;;;;;;4.53;3.33;;;;;;;14.82;100.00;100202.47;4941996;28;20047;-83
2023/07/31 03:33:42;;;;;;;5.45;2.83;;;;;;;14.76;100.00;100200.94;4923430;29;20059;-85
2023/07/31 03:36:09;;;;;;;8.35;3.83;;;;;;;14.79;100.00;100190.16;4929995;28;20049;-84
2023/07/31 03:38:36;;;;;;;4.43;3.13;;;;;;;14.79;100.00;100189.28;4931689;29;20458;-84
2023/07/31 03:41:06;;;;;;;4.68;3.60;;;;;;;14.75;100.00;100191.25;4913222;29;20076;-84
2023/07/31 03:43:36;;;;;;;7.50;3.78;;;;;;;14.73;100.00;100187.81;4937853;28;20138;-86
2023/07/31 03:46:02;;;;;;;5.63;3.35;;;;;;;14.70;100.00;100187.91;4957284;28;20054;-85
2023/07/31 03:48:29;;;;;;;6.72;3.38;;;;;;;14.66;100.00;100189.00;4931016;29;20134;-84
2023/07/31 03:50:56;;;;;;;3.67;2.85;;;;;;;14.70;100.00;100192.38;4929447;28;20093;-82
2023/07/31 03:53:23;;;;;;;7.78;3.92;;;;;;;14.87;100.00;100197.78;4940397;29;20036;-86
2023/07/31 03:55:50;;;;;;;5.72;3.65;;;;;;;14.88;100.00;100202.16;4922034;28;20040;-83
2023/07/31 03:58:17;;;;;;;4.75;3.20;;;;;;;14.78;100.00;100198.22;4976469;28;20036;-87
2023/07/31 04:00:43;;;;;;;5.97;3.30;;;;;;;14.77;100.00;100207.13;4962426;28;20059;-84
2023/07/31 04:03:10;;;;;;;4.22;3.05;;;;;;;14.88;100.00;100200.41;4940766;28;20039;-85
2023/07/31 04:05:41;;;;;;;6.85;3.28;;;;;;;14.78;100.00;100198.22;4923862;28;20071;-84
2023/07/31 04:08:08;;;;;;;5.82;3.28;;;;;;;14.76;100.00;100187.66;4936290;29;20052;-85
2023/07/31 04:10:35;;;;;;;7.35;3.90;;;;;;;14.78;100.00;100182.25;4953728;28;20047;-86
2023/07/31 04:13:02;;;;;;;4.22;3.55;;;;;;;14.77;100.00;100184.06;4952979;28;20044;-82
2023/07/31 04:15:28;;;;;;;7.22;4.43;;;;;;;14.86;100.00;100174.78;4946445;28;20051;-87
2023/07/31 04:17:58;;;;;;;5.20;3.50;;;;;;;14.83;100.00;100180.25;4962404;28;20059;-82
2023/07/31 04:20:25;;;;;;;3.50;3.20;;;;;;;14.80;100.00;100169.78;4943641;29;20059;-86
2023/07/31 04:22:52;;;;;;;6.75;3.63;;;;;;;14.80;100.00;100175.09;4941515;29;20217;-84
2023/07/31 04:25:19;;;;;;;6.43;3.30;;;;;;;14.83;100.00;100178.47;4949454;28;20066;-86
2023/07/31 04:27:46;;;;;;;4.38;3.15;;;;;;;14.92;100.00;100164.75;4942441;29;20102;-84
2023/07/31 04:30:13;;;;;;;3.95;3.10;;;;;;;14.92;100.00;100166.53;4987130;28;20077;-85
2023/07/31 04:32:39;;;;;;;5.30;3.40;;;;;;;14.94;100.00;100162.00;4953066;28;20040;-84
2023/07/31 04:35:06;;;;;;;5.15;3.58;;;;;;;14.99;100.00;100160.00;4925377;28;20134;-85
2023/07/31 04:37:33;;;;;;;3.92;3.50;;;;;;;15.02;100.00;100165.16;4934928;28;20100;-88
2023/07/31 04:40:00;;;;;;;8.50;3.53;;;;;;;15.08;100.00;100158.72;4924896;28;20074;-84
2023/07/31 04:42:27;;;;;;;5.10;3.35;;;;;;;15.08;100.00;100154.25;4940855;29;20046;-83
2023/07/31 04:44:54;;;;;;;4.35;3.67;;;;;;;15.12;100.00;100149.63;4932694;28;20036;-87
2023/07/31 04:47:20;;;;;;;5.47;4.22;;;;;;;15.18;100.00;100157.34;4945482;28;20111;-82
2023/07/31 04:49:47;;;;;;;6.15;3.60;;;;;;;15.23;100.00;100149.16;4959536;29;20051;-89
2023/07/31 04:52:14;;;;;;;7.40;4.28;;;;;;;15.28;100.00;100150.63;4939681;28;20305;-87
2023/07/31 04:54:41;;;;;;;7.60;3.50;;;;;;;15.31;100.00;100153.16;4938747;28;20042;-85
2023/07/31 04:57:08;;;;;;;3.78;3.15;;;;;;;15.36;100.00;100143.16;4969914;28;20057;-87
2023/07/31 04:59:35;;;;;;;6.80;3.60;;;;;;;15.39;100.00;100144.81;4927186;28;20051;-81
2023/07/31 05:02:02;;;;;;;4.65;3.90;;;;;;;15.39;100.00;100136.84;4927604;28;20047;-87
2023/07/31 05:04:29;;;;;;;4.18;3.40;;;;;;;15.47;100.00;100138.19;4955234;28;20050;-83
2023/07/31 05:06:56;;;;;;;4.90;3.40;;;;;;;15.49;100.00;100138.97;4941784;29;20039;-84
2023/07/31 05:09:22;;;;;;;5.13;3.70;;;;;;;15.52;100.00;100137.94;4925321;28;20493;-86
2023/07/31 05:11:49;;;;;;;4.65;3.40;;;;;;;15.49;100.00;100144.28;4926592;29;20551;-84
2023/07/31 05:14:17;;;;;;;4.82;3.60;;;;;;;15.55;100.00;100136.91;4950625;29;20311;-85
2023/07/31 05:16:44;;;;;;;5.85;3.47;;;;;;;15.61;100.00;100137.50;4958356;29;20044;-82
2023/07/31 05:19:11;;;;;;;6.13;3.72;;;;;;;15.58;100.00;100136.78;4954541;28;20051;-85
2023/07/31 05:21:38;;;;;;;6.90;3.30;;;;;;;15.61;100.00;100137.50;4954849;28;20110;-85
2023/07/31 05:24:05;;;;;;;5.72;3.25;;;;;;;15.67;100.00;100131.91;4985896;28;20128;-84
2023/07/31 05:26:32;;;;;;;5.53;3.50;;;;;;;15.64;100.00;100131.19;4931234;28;20509;-85
2023/07/31 05:29:00;;;;;;;5.85;3.50;;;;;;;15.70;100.00;100121.06;4956226;28;20058;-87
2023/07/31 05:31:27;;;;;;;7.32;3.70;;;;;;;15.69;100.00;100123.81;4943086;28;20043;-82
2023/07/31 05:33:54;;;;;;;6.90;3.78;;;;;;;15.84;100.00;100120.41;4932126;29;20042;-83
2023/07/31 05:36:21;;;;;;;7.32;3.78;;;;;;;15.79;100.00;100125.06;5014598;28;20107;-83
2023/07/31 05:38:47;;;;;;;9.30;3.75;;;;;;;15.89;100.00;100128.13;4936007;28;20070;-83
2023/07/31 05:41:14;;;;;;;7.78;3.97;;;;;;;15.91;100.00;100123.63;4937135;28;20573;-87
2023/07/31 05:43:42;;;;;;;5.80;4.20;;;;;;;16.03;100.00;100131.81;4931957;29;20099;-82
2023/07/31 05:46:09;;;;;;;8.57;5.00;;;;;;;16.13;100.00;100132.22;4934427;29;20114;-80
2023/07/31 05:48:36;;;;;;;6.43;3.90;;;;;;;16.24;100.00;100123.69;4933890;29;20054;-82
2023/07/31 05:51:03;;;;;;;4.90;3.80;;;;;;;16.38;100.00;100128.25;4936834;29;20039;-82
2023/07/31 05:53:30;;;;;;;6.65;3.60;;;;;;;16.48;100.00;100130.38;4942174;29;20039;-81
2023/07/31 05:55:59;;;;;;;4.82;3.15;;;;;;;16.53;100.00;100130.13;4962516;28;20048;-82
2023/07/31 05:58:26;;;;;;;5.65;3.50;;;;;;;16.57;100.00;100121.88;4936005;29;20047;-85
2023/07/31 06:00:53;;;;;;;8.05;3.60;;;;;;;16.66;100.00;100119.66;4960099;28;20047;-86
2023/07/31 06:03:27;;;;;;;;;;;;;;;16.65;100.00;100131.25;4926305;29;20464;-85
2023/07/31 06:05:54;;;;;;;5.25;3.53;;;;;;;16.55;100.00;100130.91;4948979;28;19965;-84
2023/07/31 06:08:21;;;;;;;5.15;3.40;;;;;;;16.62;100.00;100132.28;4941824;28;20431;-81
2023/07/31 06:10:48;;;;;;;6.63;4.07;;;;;;;16.55;100.00;100125.56;4919592;28;20039;-83
2023/07/31 06:13:16;;;;;;;7.30;3.65;;;;;;;16.54;100.00;100124.69;4944699;28;20039;-83
2023/07/31 06:15:43;;;;;;;8.07;4.07;;;;;;;16.43;100.00;100134.22;4919733;28;20566;-84
2023/07/31 06:18:14;;;;;;;6.88;3.60;;;;;;;16.33;100.00;100126.72;4941954;29;20044;-83
2023/07/31 06:20:42;;;;;;;6.00;3.97;;;;;;;16.24;100.00;100124.53;4947190;28;20047;-82
2023/07/31 06:23:09;;;;;;;4.78;3.78;;;;;;;16.31;100.00;100130.38;4922636;28;20064;-82
2023/07/31 06:25:36;;;;;;;7.03;4.60;;;;;;;16.41;100.00;100123.66;4932434;28;20057;-83
2023/07/31 06:28:03;;;;;;;6.53;4.82;;;;;;;16.52;100.00;100128.41;4950362;29;20095;-82
2023/07/31 06:30:30;;;;;;;6.40;4.75;;;;;;;16.66;100.00;100130.34;4917400;29;20550;-82
2023/07/31 06:32:56;;;;;;;6.05;3.95;;;;;;;16.84;100.00;100122.22;4930399;29;20047;-82
2023/07/31 06:35:32;;;;;;;4.88;4.18;;;;;;;16.93;100.00;100123.53;5024720;28;20066;-81
2023/07/31 06:38:01;;;;;;;7.10;3.70;;;;;;;16.91;100.00;100121.91;4977936;23;20117;-84
2023/07/31 06:40:28;;;;;;;6.45;3.85;;;;;;;16.98;100.00;100118.78;4964104;22;20461;-82
2023/07/31 06:43:06;;;;;;;6.28;4.20;;;;;;;17.03;100.00;100119.41;5348717;23;20026;-82
2023/07/31 06:45:46;;;;;;;4.03;3.50;;;;;;;16.89;100.00;100112.13;4896688;28;20052;-84
2023/07/31 06:48:13;;;;;;;4.88;3.83;;;;;;;16.98;100.00;100116.09;4911417;28;20068;-80
2023/07/31 06:50:39;;;;;;;6.45;3.70;;;;;;;16.95;100.00;100115.44;4890140;28;20051;-82
2023/07/31 06:53:06;;;;;;;5.38;3.65;;;;;;;16.96;100.00;100115.34;4883222;28;20122;-82
2023/07/31 06:55:33;;;;;;;5.35;3.90;;;;;;;16.97;100.00;100117.06;4884219;28;20517;-83
2023/07/31 06:57:59;;;;;;;4.20;3.10;;;;;;;16.96;100.00;100115.34;4906892;28;20135;-82
2023/07/31 07:00:27;;;;;;;5.30;3.80;;;;;;;16.96;100.00;100107.34;4885641;28;20051;-82
2023/07/31 07:02:53;;;;;;;5.78;3.88;;;;;;;16.93;100.00;100104.00;4881671;29;20086;-82
2023/07/31 07:05:20;;;;;;;7.85;4.22;;;;;;;17.09;100.00;100112.88;4861619;29;20547;-83
2023/07/31 07:07:49;;;;;;;6.03;4.05;;;;;;;17.10;100.00;100110.09;4886544;28;20064;-82
2023/07/31 07:10:16;;;;;;;4.70;3.35;;;;;;;17.18;100.00;100096.31;4863184;29;20044;-82
2023/07/31 07:12:43;;;;;;;5.05;3.38;;;;;;;17.27;100.00;100101.13;4882605;28;20040;-82
2023/07/31 07:15:12;;;;;;;5.20;3.00;;;;;;;17.27;100.00;100098.47;4890877;28;20053;-82
2023/07/31 07:17:39;;;;;;;6.85;4.10;;;;;;;17.29;100.00;100096.56;4894897;28;20051;-83
2023/07/31 07:20:07;;;;;;;6.47;3.50;;;;;;;17.33;100.00;100090.13;4917007;28;20073;-83
2023/07/31 07:22:36;;;;;;;6.85;3.55;;;;;;;17.36;100.00;100094.41;4870878;28;20045;-84
2023/07/31 07:25:04;;;;;;;5.03;3.63;;;;;;;17.40;100.00;100086.16;4891763;28;20076;-80
2023/07/31 07:27:31;;;;;;;6.47;3.83;;;;;;;17.51;100.00;100090.88;4863851;29;20049;-82
2023/07/31 07:29:58;;;;;;;5.07;3.22;;;;;;;17.69;100.00;100089.78;4884748;28;20126;-81
2023/07/31 07:32:25;;;;;;;5.88;3.92;;;;;;;17.86;100.00;100091.50;4886885;28;20066;-80
2023/07/31 07:34:51;;;;;;;5.10;3.33;;;;;;;17.99;100.00;100088.91;4906750;28;20045;-81
2023/07/31 07:37:18;;;;;;;5.82;3.42;;;;;;;18.03;100.00;100084.28;4886257;28;20042;-82
2023/07/31 07:39:45;;;;;;;6.65;3.60;;;;;;;18.16;100.00;100079.88;4937163;28;20034;-83
2023/07/31 07:42:12;;;;;;;7.07;3.30;;;;;;;18.41;100.00;100073.88;4920132;28;20040;-81
2023/07/31 07:44:39;;;;;;;7.35;3.47;;;;;;;18.51;100.00;100075.91;4886309;28;20047;-81
2023/07/31 07:47:06;;;;;;;4.97;3.38;;;;;;;18.46;100.00;100078.00;4877348;28;20073;-82
2023/07/31 07:49:34;;;;;;;4.95;3.03;;;;;;;18.59;100.00;100075.44;4870561;29;20048;-80
2023/07/31 07:52:02;;;;;;;7.10;3.58;;;;;;;18.80;100.00;100074.09;4880143;29;20112;-85
2023/07/31 07:54:32;;;;;;;4.07;3.20;;;;;;;19.08;100.00;100074.97;4896084;28;20048;-84
2023/07/31 07:57:00;;;;;;;4.20;2.90;;;;;;;19.13;100.00;100070.19;4881033;28;20047;-82
2023/07/31 07:59:30;;;;;;;3.13;2.80;;;;;;;19.15;100.00;100070.09;4902815;28;20112;-82
2023/07/31 08:01:57;;;;;;;4.80;2.95;;;;;;;19.19;100.00;100066.28;4911300;28;20670;-80
2023/07/31 08:04:25;;;;;;;5.40;3.33;;;;;;;19.06;100.00;100064.38;4911380;28;20036;-82
2023/07/31 08:06:51;;;;;;;3.13;2.60;;;;;;;19.01;100.00;100063.84;4888927;28;20719;-83
2023/07/31 08:09:18;;;;;;;4.95;3.00;;;;;;;19.12;100.00;100061.31;4891080;28;20045;-83
2023/07/31 08:11:46;;;;;;;4.75;2.72;;;;;;;19.17;100.00;100061.03;4877275;28;20048;-82
2023/07/31 08:14:13;;;;;;;3.58;2.42;;;;;;;19.26;100.00;100064.91;4893656;28;20049;-82
2023/07/31 08:16:40;;;;;;;4.07;3.10;;;;;;;19.23;100.00;100067.78;4900834;28;20055;-82
2023/07/31 08:19:07;;;;;;;3.35;2.65;;;;;;;19.13;100.00;100052.31;4893738;28;20632;-82
2023/07/31 08:21:34;;;;;;;4.93;2.47;;;;;;;19.00;100.00;100056.78;4889824;28;20119;-82
2023/07/31 08:24:01;;;;;;;25.88;17.15;;;;;;;19.03;100.00;100061.91;4869281;29;20048;-82
2023/07/31 08:26:28;;;;;;;25.90;15.40;;;;;;;19.07;100.00;100057.22;4880378;28;20072;-83
2023/07/31 08:28:55;;;;;;;4.95;3.28;;;;;;;19.13;100.00;100043.44;4879962;29;20037;-83
2023/07/31 08:31:22;;;;;;;4.15;2.63;;;;;;;19.46;100.00;100048.38;4901840;28;20589;-80
2023/07/31 08:33:49;;;;;;;2.72;2.50;;;;;;;19.57;100.00;100043.16;4930625;28;20066;-81
2023/07/31 08:36:16;;;;;;;4.32;2.50;;;;;;;19.56;100.00;100041.47;4888195;28;20049;-82
2023/07/31 08:38:43;;;;;;;4.43;2.03;;;;;;;19.12;99.26;100033.69;4903223;28;20053;-82
2023/07/31 08:41:13;;;;;;;4.07;2.33;;;;;;;19.19;100.00;100036.81;4914015;28;20040;-82
2023/07/31 08:43:40;;;;;;;2.63;1.90;;;;;;;19.21;100.00;100041.09;4940415;28;20051;-82
2023/07/31 08:46:08;;;;;;;5.10;2.28;;;;;;;19.09;100.00;100037.44;4898870;28;20095;-83
2023/07/31 08:48:35;;;;;;;2.03;1.77;;;;;;;19.16;100.00;100040.53;4886532;28;20420;-83
2023/07/31 08:51:02;;;;;;;3.25;1.80;;;;;;;19.25;100.00;100034.56;4880427;28;20132;-83
2023/07/31 08:53:29;;;;;;;3.05;2.85;;;;;;;19.25;100.00;100037.25;4900208;28;20458;-84
2023/07/31 08:55:58;;;;;;;3.30;2.20;;;;;;;19.31;100.00;100038.66;4882740;28;20044;-84
2023/07/31 08:58:31;;;;;;;2.00;1.70;;;;;;;19.26;100.00;100033.63;4892607;28;20047;-83
2023/07/31 09:01:01;;;;;;;2.55;2.05;;;;;;;19.32;100.00;100040.38;4895123;28;20119;-84
2023/07/31 09:03:28;;;;;;;2.20;1.88;;;;;;;19.25;100.00;100034.56;4881198;28;20430;-83
2023/07/31 09:05:57;;;;;;;3.35;1.83;;;;;;;19.27;100.00;100040.72;4892096;28;20044;-84
2023/07/31 09:08:26;;;;;;;2.33;1.90;;;;;;;19.25;100.00;100039.06;4896908;28;20036;-84
2023/07/31 09:10:54;;;;;;;3.20;1.90;;;;;;;19.28;100.00;100038.88;4889739;28;20049;-83
2023/07/31 09:13:22;;;;;;;2.42;1.80;;;;;;;19.17;98.65;100039.59;4892458;29;20063;-81
2023/07/31 09:15:48;;;;;;;1.92;1.70;;;;;;;19.13;100.00;100032.72;4911012;28;20075;-85
2023/07/31 09:18:19;;;;;;;2.28;2.00;;;;;;;19.11;100.00;100022.13;4892578;29;20125;-85
2023/07/31 09:20:45;;;;;;;2.22;2.00;;;;;;;19.12;100.00;100025.66;4876768;28;20095;-85
2023/07/31 09:23:14;;;;;;;2.05;1.83;;;;;;;19.16;100.00;100024.47;4903483;28;20058;-85
2023/07/31 09:25:44;;;;;;;2.65;2.10;;;;;;;19.19;100.00;100028.78;4872424;29;20102;-85
2023/07/31 09:28:11;;;;;;;3.50;1.83;;;;;;;19.18;100.00;100016.34;4924021;28;20414;-85
2023/07/31 09:31:50;;;;;;;2.00;1.80;;;;;;;18.90;100.00;100011.94;4893410;28;20051;-84
2023/07/31 09:34:17;;;;;;;3.20;2.20;;;;;;;19.42;100.00;100014.69;4930527;28;20073;-85
2023/07/31 09:36:48;;;;;;;2.40;1.95;;;;;;;19.69;100.00;100009.34;4893053;28;20059;-84
2023/07/31 09:39:16;;;;;;;2.58;1.85;;;;;;;19.84;100.00;100005.59;4887237;28;20044;-83
2023/07/31 09:41:46;;;;;;;3.20;1.65;;;;;;;19.71;99.07;100009.22;4902736;28;20052;-85
2023/07/31 09:44:13;;;;;;;2.22;1.60;;;;;;;19.49;100.00;100021.34;4896460;28;20034;-84
2023/07/31 09:46:40;;;;;;;2.30;1.80;;;;;;;19.50;100.00;100012.34;4915771;28;20045;-83
2023/07/31 09:49:12;;;;;;;2.97;1.80;;;;;;;19.43;100.00;100013.75;4870849;29;20108;-82
2023/07/31 09:51:41;;;;;;;1.70;1.45;;;;;;;19.50;100.00;100001.63;4912546;28;20546;-84
2023/07/31 09:54:12;;;;;;;2.58;2.00;;;;;;;19.62;100.00;100010.72;4869939;28;20522;-82
2023/07/31 09:56:48;;;;;;;2.10;1.70;;;;;;;19.64;100.00;100009.63;4897394;28;20051;-84
2023/07/31 09:59:18;;;;;;;2.08;1.70;;;;;;;19.86;100.00;100010.84;4885292;28;20409;-85
2023/07/31 10:01:49;;;;;;;1.65;1.52;;;;;;;19.73;99.90;100005.47;4909012;28;20071;-83
2023/07/31 10:04:20;;;;;;;3.03;1.70;;;;;;;19.81;99.40;99997.75;4883057;29;20037;-83
2023/07/31 10:06:49;;;;;;;1.60;1.50;;;;;;;19.75;100.00;100000.84;4920989;28;20044;-83
2023/07/31 10:09:18;;;;;;;2.72;2.13;;;;;;;19.94;100.00;99995.09;4907842;28;20064;-82
2023/07/31 10:11:58;;;;;;;2.97;1.70;;;;;;;19.80;95.28;99993.38;4877526;28;20041;-82
2023/07/31 10:14:26;;;;;;;1.85;1.60;;;;;;;19.90;97.55;99986.41;4880298;28;20037;-82
2023/07/31 10:16:53;;;;;;;1.50;1.40;;;;;;;19.77;99.54;99985.56;4884027;28;20053;-83
2023/07/31 10:19:20;;;;;;;2.25;1.65;;;;;;;19.75;100.00;99989.28;4883147;28;20044;-84
2023/07/31 10:21:48;;;;;;;1.77;1.60;;;;;;;19.57;98.74;99970.81;4907767;28;20038;-83
2023/07/31 10:24:15;;;;;;;3.15;1.90;;;;;;;19.29;99.87;99962.94;4886587;28;20099;-83
2023/07/31 10:26:50;;;;;;;2.30;1.60;;;;;;;19.13;100.00;99982.69;4891190;28;20041;-83
2023/07/31 10:29:18;;;;;;;2.13;1.77;;;;;;;18.96;100.00;99985.63;4902407;28;20057;-84
2023/07/31 10:31:47;;;;;;;2.90;1.58;;;;;;;18.84;100.00;99989.13;4886346;28;20458;-86
2023/07/31 10:34:16;;;;;;;1.90;1.70;;;;;;;18.58;100.00;99988.06;4886273;28;20048;-82
2023/07/31 10:36:43;;;;;;;1.42;1.33;;;;;;;18.49;100.00;99988.66;4891813;28;20048;-82
2023/07/31 10:39:39;;;;;;;1.33;1.23;;;;;;;18.43;100.00;99992.63;4910302;28;20055;-84
2023/07/31 10:42:13;;;;;;;1.50;1.30;;;;;;;18.47;100.00;99990.59;4906876;28;20127;-85
2023/07/31 10:44:44;;;;;;;1.30;1.20;;;;;;;18.43;100.00;99986.41;4884604;28;20069;-84
2023/07/31 10:47:15;;;;;;;2.95;1.13;;;;;;;18.23;100.00;99984.97;4932065;28;20035;-82
2023/07/31 10:49:45;;;;;;;2.10;1.15;;;;;;;18.21;100.00;99989.56;4896483;28;20498;-83
2023/07/31 10:52:13;;;;;;;3.53;1.20;;;;;;;18.31;100.00;99985.34;4878449;28;20501;-84
2023/07/31 10:54:40;;;;;;;1.08;0.98;;;;;;;18.35;100.00;99978.88;4872269;29;20068;-83
2023/07/31 10:57:20;;;;;;;1.10;0.90;;;;;;;18.36;100.00;99980.59;4894851;28;20698;-85
2023/07/31 10:59:48;;;;;;;1.17;0.93;;;;;;;18.31;100.00;99976.47;4889849;28;20055;-85
2023/07/31 11:02:26;;;;;;;0.90;0.90;;;;;;;18.27;100.00;99979.34;4892719;29;20045;-83
2023/07/31 11:05:07;;;;;;;1.40;1.23;;;;;;;18.26;100.00;99977.63;4902678;28;20062;-84
2023/07/31 11:07:48;;;;;;;1.33;1.17;;;;;;;18.27;100.00;99967.81;4872897;28;20502;-85
2023/07/31 11:10:19;;;;;;;1.63;1.40;;;;;;;18.22;100.00;99970.75;4877264;28;20040;-86
2023/07/31 11:12:47;;;;;;;2.10;1.52;;;;;;;18.23;100.00;99968.94;4885085;28;20488;-84
2023/07/31 11:15:14;;;;;;;2.13;1.35;;;;;;;18.29;100.00;99969.41;4910988;28;20044;-83
2023/07/31 11:17:41;;;;;;;2.30;1.40;;;;;;;18.32;100.00;99964.81;4869923;28;20461;-84
2023/07/31 11:20:08;;;;;;;1.40;1.30;;;;;;;18.20;100.00;99963.78;4887220;28;20059;-84
2023/07/31 11:22:36;;;;;;;2.00;1.40;;;;;;;18.16;100.00;99972.94;4891067;28;20052;-84
2023/07/31 11:25:04;;;;;;;2.40;1.40;;;;;;;18.17;100.00;99964.84;4864586;29;20071;-85